Stations météo

réclame
Mon MeteoGroup
Kristianstad, Suède (2651): Température de l'air & dewpoint: 15.02.2019 19:00:00 - 21.02.2019 19:00:00 (CET)Kristianstad, Suède (2651): Vitesse du vent: 15.02.2019 19:00:00 - 21.02.2019 19:00:00 (CET)Kristianstad, Suède (2651): Direction du vent: 15.02.2019 19:00:00 - 21.02.2019 19:00:00 (CET)Kristianstad, Suède (2651): visibility: 15.02.2019 19:00:00 - 21.02.2019 19:00:00 (CET)
Date & Time tt [°C] td [°C] ff [km/h] ff [knt] dd vv [km]
21.02.2019 19:00:00 2,0 2,0 16 9 ENE 3,7
21.02.2019 18:00:00 3,0 2,0 11 6 ENE 2,5
21.02.2019 17:00:00 3,0 2,0 8 4 ENE 3,8
21.02.2019 16:00:00 3,0 3,0 9 5 E 7
21.02.2019 15:00:00 4,0 3,0 11 6 NE 4,2
21.02.2019 14:00:00 4,0 3,0 13 7 ENE 4,1
21.02.2019 13:00:00 4,0 3,0 11 6 NE 10
21.02.2019 12:00:00 4,0 4,0 8 4 NNE 3,8
21.02.2019 11:00:00 4,0 4,0 13 7 NE 3,6
21.02.2019 10:00:00 6,0 6,0 4 2 - 2,8
21.02.2019 09:00:00 6,0 5,0 4 2 ESE 2,3
21.02.2019 08:00:00 5,0 5,0 4 2 SE 2,1
21.02.2019 07:00:00 5,0 5,0 0 0 N 1,5
21.02.2019 06:00:00 5,0 5,0 4 2 ESE 1,3
21.02.2019 05:00:00 5,0 5,0 4 2 SSE 2,0
21.02.2019 04:00:00 5,0 5,0 8 4 SSE 3,3
21.02.2019 03:00:00 5,0 5,0 5 3 SSE 3,4
21.02.2019 02:00:00 4,0 4,0 5 3 SSE 1,2
21.02.2019 01:00:00 5,0 4,0 4 2 SSE 1,2
21.02.2019 00:00:00 4,0 4,0 5 3 S 2,9
20.02.2019 23:00:00 4,0 4,0 4 2 SE 4,2
20.02.2019 22:00:00 4,0 4,0 4 2 SSW 7
20.02.2019 21:00:00 4,0 2,0 8 4 SSW 10
20.02.2019 20:00:00 4,0 2,0 5 3 SSW 10
20.02.2019 19:00:00 4,0 2,0 0 0 N 10
20.02.2019 18:00:00 6,0 2,0 8 4 W 10
20.02.2019 17:00:00 6,0 2,0 8 4 WNW 10
20.02.2019 16:00:00 7,0 2,0 15 8 WNW 10
20.02.2019 15:00:00 7,0 2,0 21 11 WNW 10
20.02.2019 14:00:00 7,0 2,0 22 12 W 10
20.02.2019 13:00:00 7,0 2,0 18 10 WNW 10
20.02.2019 12:00:00 6,0 2,0 22 12 WNW 10
20.02.2019 11:00:00 6,0 2,0 18 10 W 10
20.02.2019 10:00:00 6,0 2,0 21 11 W 10
20.02.2019 09:00:00 5,0 2,0 18 10 WNW 10
20.02.2019 08:00:00 5,0 2,0 22 12 WNW 10
20.02.2019 07:00:00 5,0 2,0 22 12 WNW 10
20.02.2019 06:00:00 5,0 2,0 24 13 WNW 10
20.02.2019 05:00:00 5,0 2,0 21 11 W 10
20.02.2019 04:00:00 5,0 2,0 28 15 W 10
20.02.2019 03:00:00 6,0 1,0 26 14 W 10
20.02.2019 02:00:00 6,0 1,0 26 14 W 10
20.02.2019 01:00:00 6,0 1,0 26 14 W 10
20.02.2019 00:00:00 6,0 1,0 28 15 W 10
19.02.2019 23:00:00 6,0 2,0 26 14 W 10
19.02.2019 22:00:00 6,0 2,0 26 14 W 10
19.02.2019 21:00:00 6,0 2,0 26 14 W 10
19.02.2019 20:00:00 6,0 3,0 28 15 W 10
19.02.2019 19:00:00 6,0 3,0 22 12 W 10
19.02.2019 18:00:00 6,0 3,0 22 12 W 10
19.02.2019 17:00:00 7,0 4,0 21 11 W 10
19.02.2019 16:00:00 7,0 4,0 24 13 WSW 10
19.02.2019 15:00:00 7,0 4,0 22 12 WSW 8
19.02.2019 14:00:00 7,0 5,0 22 12 WSW 10
19.02.2019 13:00:00 8,0 4,0 18 10 WSW 10
19.02.2019 12:00:00 8,0 4,0 22 12 WSW 10
19.02.2019 11:00:00 7,0 4,0 21 11 WSW 10
19.02.2019 10:00:00 6,0 4,0 11 6 SW 10
19.02.2019 09:00:00 6,0 4,0 16 9 W 6
19.02.2019 08:00:00 4,0 4,0 0 0 N 3,0
19.02.2019 07:00:00 2,0 2,0 5 3 - 2,5
19.02.2019 06:00:00 1,0 1,0 11 6 S 2,0
19.02.2019 05:00:00 1,0 0,0 8 4 SSE 0,6
19.02.2019 04:00:00 -1,0 -2,0 8 4 WSW 1,1
19.02.2019 03:00:00 -2,0 -3,0 5 3 SW 0,4
19.02.2019 02:00:00 -2,0 -2,0 4 2 N 0,3
19.02.2019 01:00:00 -1,0 -2,0 0 0 N 0,3
19.02.2019 00:00:00 -1,0 -2,0 4 2 - 2,0
18.02.2019 23:00:00 -1,0 -2,0 0 0 N 0,1
18.02.2019 22:00:00 -1,0 -2,0 0 0 N 0,1
18.02.2019 21:00:00 -1,0 -1,0 0 0 N -
18.02.2019 20:00:00 1,0 0,0 0 0 N -
18.02.2019 19:00:00 0,0 -1,0 4 2 SSE -
18.02.2019 18:00:00 4,0 3,0 4 2 NNE 2,0
18.02.2019 17:00:00 6,0 4,0 5 3 NE 6
18.02.2019 16:00:00 8,0 5,0 4 2 - 8
18.02.2019 15:00:00 8,0 6,0 8 4 NE 7
18.02.2019 14:00:00 10,0 6,0 8 4 E 10
18.02.2019 13:00:00 8,0 6,0 4 2 - 8
18.02.2019 12:00:00 6,0 6,0 5 3 SE 6
18.02.2019 11:00:00 5,0 5,0 8 4 SSE 3,7
18.02.2019 10:00:00 4,0 4,0 9 5 SE 1,7
18.02.2019 09:00:00 3,0 3,0 9 5 ESE 0,2
18.02.2019 08:00:00 3,0 3,0 5 3 SSE 0,1
18.02.2019 07:00:00 3,0 3,0 8 4 ESE 0,1
18.02.2019 06:00:00 3,0 3,0 8 4 SSE 0,1
18.02.2019 05:00:00 3,0 3,0 4 2 SE 0,1
18.02.2019 04:00:00 3,0 3,0 5 3 ESE 0,1
18.02.2019 03:00:00 2,0 2,0 5 3 ESE 0,2
18.02.2019 02:00:00 2,0 2,0 4 2 E 0,1
18.02.2019 01:00:00 3,0 2,0 0 0 N -
18.02.2019 00:00:00 3,0 3,0 4 2 SSE -
17.02.2019 23:00:00 2,0 2,0 5 3 SSE -
17.02.2019 22:00:00 1,0 1,0 5 3 S 0,1
17.02.2019 21:00:00 2,0 1,0 5 3 S 2,1
17.02.2019 20:00:00 2,0 1,0 4 2 SSE 0,1
17.02.2019 19:00:00 5,0 3,0 5 3 - 5
17.02.2019 18:00:00 6,0 4,0 4 2 - 10
17.02.2019 17:00:00 7,0 4,0 0 0 N 10
17.02.2019 16:00:00 8,0 4,0 4 2 - 10
17.02.2019 15:00:00 8,0 5,0 5 3 - 10
17.02.2019 14:00:00 7,0 5,0 5 3 - 10
17.02.2019 13:00:00 7,0 4,0 8 4 WNW 10
17.02.2019 12:00:00 6,0 4,0 8 4 WNW 9
17.02.2019 11:00:00 6,0 4,0 11 6 W 8
17.02.2019 10:00:00 6,0 4,0 13 7 W 7
17.02.2019 09:00:00 5,0 4,0 13 7 W 7
17.02.2019 08:00:00 5,0 4,0 11 6 W 6
17.02.2019 07:00:00 4,0 3,0 11 6 W 4,7
17.02.2019 06:00:00 3,0 3,0 5 3 W 3,5
17.02.2019 05:00:00 5,0 3,0 8 4 W 6
17.02.2019 04:00:00 6,0 4,0 13 7 W 7
17.02.2019 03:00:00 6,0 4,0 15 8 W 7
17.02.2019 02:00:00 6,0 4,0 15 8 W 7
17.02.2019 01:00:00 7,0 4,0 13 7 W 8
17.02.2019 00:00:00 7,0 4,0 15 8 W 9
16.02.2019 23:00:00 8,0 4,0 16 9 WNW 10
16.02.2019 22:00:00 8,0 4,0 13 7 W 10
16.02.2019 21:00:00 8,0 3,0 21 11 W 10
16.02.2019 20:00:00 8,0 3,0 21 11 W 10
16.02.2019 19:00:00 9,0 2,0 21 11 W 10
16.02.2019 18:00:00 9,0 2,0 22 12 W 10
16.02.2019 17:00:00 10,0 2,0 24 13 W 10
16.02.2019 16:00:00 11,0 2,0 16 9 WSW 10
16.02.2019 15:00:00 12,0 2,0 21 11 WSW 10
16.02.2019 14:00:00 12,0 2,0 16 9 W 10
16.02.2019 13:00:00 12,0 1,0 18 10 W 10
16.02.2019 12:00:00 11,0 2,0 15 8 WSW 10
16.02.2019 11:00:00 11,0 2,0 5 3 W 10
16.02.2019 10:00:00 9,0 1,0 11 6 WSW 10
16.02.2019 09:00:00 6,0 1,0 11 6 SSW 10
16.02.2019 08:00:00 1,0 -2,0 9 5 SW 10
16.02.2019 07:00:00 1,0 -1,0 2 1 - 10
16.02.2019 06:00:00 -3,0 -5,0 11 6 SW 10
16.02.2019 05:00:00 -3,0 -4,0 11 6 WSW 10
16.02.2019 04:00:00 -2,0 -4,0 2 1 - 10
16.02.2019 03:00:00 -2,0 -4,0 0 0 N 10
16.02.2019 02:00:00 -2,0 -3,0 4 2 - 10
16.02.2019 01:00:00 -1,0 -3,0 4 2 - 10
16.02.2019 00:00:00 0,0 -2,0 4 2 - 10
15.02.2019 23:00:00 -1,0 -1,0 4 2 - 10
15.02.2019 22:00:00 -1,0 -2,0 2 1 - 6
15.02.2019 21:00:00 0,0 -1,0 0 0 N 10
15.02.2019 20:00:00 0,0 -2,0 5 3 SSE 10
15.02.2019 19:00:00 5,0 1,0 8 4 WSW 10

tt = Température de l'air
td = dewpoint
ff = Vitesse du vent
dd = Direction du vent
vv = visibility

stations d'obs. à proximité